ダーウィン の空港の天気 - METARとTAF

ダーウィン国際空港 ( YPDN / DRW ) - オーストラリア ノーザンテリトリーダーウィン
飛行場実況気象(Metar)
観測時間02/01 19:30 ACST (02/01 10:00 UTC)
風向・風速西北西 4m/s
視程10km以上
天気現象
少しの雲 雲底高度 610m
全天の8割程度の雲 雲底高度 11280m
気温29℃
湿度79%
気圧1005hPa
METARYPDN 011000Z 30008KT 9999 FEW020 BKN370 29/25 Q1005 RF00.0/000.0
過去の天気等 Google飛行場航空写真 Wunderground天気予報

過去48時間のMETAR

飛行場予報(TAF)
発表時間: 2/01 17:43 ACST (2/01 08:13 UTC)
予報対象時間: 1日18時 ACST ~ 2日21時 ACST
風向・風速西北西 6m/s
視程10km以上
全天の4割程度の雲 雲底高度 610m
1日21時 ACST から
風向・風速西 4m/s
視程10km以上
全天の4割程度の雲 雲底高度 460m
2日9時 ACST から
風向・風速西北西 7m/s
視程10km以上
全天の4割程度の雲 雲底高度 550m
2日1時 ACST ~ 2日13時 ACST に 確率 30% で一時的に
風向・風速不定 10m/s 瞬間風速 18m/s
視程1000m
天気現象強い雷雨
全天の8割程度の雲 雲底高度 240m
全天の4割程度の積乱雲 雲底高度 550m
TAF YPDN 010813Z 0109/0212 30012KT 9999 SCT020
FM011200 28008KT 9999 SCT015
FM020000 30014KT 9999 SCT018 INTER 0109/0212 2000 SHRA BKN012 SCT020TCU
PROB30 TEMPO 0116/0204 VRB20G35KT 1000 +TSRA BKN008 SCT018CB